sensor_id;sensor_type;location;lat;lon;timestamp;P1;durP1;ratioP1;P2;durP2;ratioP2
53269;SDS011;39159;45.634;9.420;2023-04-03T00:01:10;10.05;;;6.35;;
53269;SDS011;39159;45.634;9.420;2023-04-03T00:03:36;9.30;;;6.50;;
53269;SDS011;39159;45.634;9.420;2023-04-03T00:06:02;12.07;;;6.07;;
53269;SDS011;39159;45.634;9.420;2023-04-03T00:08:30;10.10;;;6.90;;
53269;SDS011;39159;45.634;9.420;2023-04-03T00:10:57;12.65;;;6.90;;
53269;SDS011;39159;45.634;9.420;2023-04-03T00:13:23;15.00;;;6.40;;
53269;SDS011;39159;45.634;9.420;2023-04-03T00:15:50;12.43;;;6.60;;
53269;SDS011;39159;45.634;9.420;2023-04-03T00:18:15;9.02;;;6.20;;
53269;SDS011;39159;45.634;9.420;2023-04-03T00:20:41;15.63;;;6.68;;
53269;SDS011;39159;45.634;9.420;2023-04-03T00:23:06;11.90;;;6.78;;
53269;SDS011;39159;45.634;9.420;2023-04-03T00:25:32;10.57;;;6.53;;
53269;SDS011;39159;45.634;9.420;2023-04-03T00:27:58;8.23;;;5.85;;
53269;SDS011;39159;45.634;9.420;2023-04-03T00:30:24;13.10;;;6.18;;
53269;SDS011;39159;45.634;9.420;2023-04-03T00:32:51;9.80;;;5.97;;
53269;SDS011;39159;45.634;9.420;2023-04-03T00:35:17;12.90;;;5.93;;
53269;SDS011;39159;45.634;9.420;2023-04-03T00:37:44;12.00;;;6.70;;
53269;SDS011;39159;45.634;9.420;2023-04-03T00:40:11;14.27;;;6.60;;
53269;SDS011;39159;45.634;9.420;2023-04-03T00:42:40;13.15;;;6.43;;
53269;SDS011;39159;45.634;9.420;2023-04-03T00:47:31;10.15;;;6.63;;
53269;SDS011;39159;45.634;9.420;2023-04-03T00:49:57;14.50;;;7.40;;
53269;SDS011;39159;45.634;9.420;2023-04-03T00:52:25;10.32;;;6.13;;
53269;SDS011;39159;45.634;9.420;2023-04-03T00:54:53;11.48;;;6.57;;
53269;SDS011;39159;45.634;9.420;2023-04-03T00:57:22;11.07;;;6.45;;
53269;SDS011;39159;45.634;9.420;2023-04-03T00:59:49;9.30;;;6.40;;
53269;SDS011;39159;45.634;9.420;2023-04-03T01:02:17;12.80;;;6.60;;
53269;SDS011;39159;45.634;9.420;2023-04-03T01:04:43;12.40;;;7.03;;
53269;SDS011;39159;45.634;9.420;2023-04-03T01:09:35;10.20;;;6.43;;
53269;SDS011;39159;45.634;9.420;2023-04-03T01:12:22;11.07;;;6.53;;
53269;SDS011;39159;45.634;9.420;2023-04-03T01:14:51;12.77;;;6.70;;
53269;SDS011;39159;45.634;9.420;2023-04-03T01:25:51;17.05;;;7.10;;
53269;SDS011;39159;45.634;9.420;2023-04-03T01:28:20;10.82;;;7.00;;
53269;SDS011;39159;45.634;9.420;2023-04-03T01:33:31;11.55;;;6.63;;
53269;SDS011;39159;45.634;9.420;2023-04-03T01:35:56;10.90;;;7.00;;
53269;SDS011;39159;45.634;9.420;2023-04-03T01:38:22;9.57;;;6.30;;
53269;SDS011;39159;45.634;9.420;2023-04-03T01:40:47;10.10;;;6.00;;
53269;SDS011;39159;45.634;9.420;2023-04-03T01:43:13;10.95;;;5.90;;
53269;SDS011;39159;45.634;9.420;2023-04-03T01:45:38;11.93;;;6.22;;
53269;SDS011;39159;45.634;9.420;2023-04-03T01:48:04;11.77;;;6.40;;
53269;SDS011;39159;45.634;9.420;2023-04-03T01:50:30;11.70;;;6.05;;
53269;SDS011;39159;45.634;9.420;2023-04-03T01:52:55;10.70;;;6.10;;
53269;SDS011;39159;45.634;9.420;2023-04-03T01:55:21;12.13;;;6.55;;
53269;SDS011;39159;45.634;9.420;2023-04-03T01:57:46;11.80;;;7.10;;
53269;SDS011;39159;45.634;9.420;2023-04-03T02:00:12;11.48;;;6.15;;
53269;SDS011;39159;45.634;9.420;2023-04-03T02:02:38;12.23;;;6.57;;
53269;SDS011;39159;45.634;9.420;2023-04-03T02:05:04;9.73;;;5.72;;
53269;SDS011;39159;45.634;9.420;2023-04-03T02:07:30;12.77;;;6.40;;
53269;SDS011;39159;45.634;9.420;2023-04-03T02:09:55;8.35;;;5.82;;
53269;SDS011;39159;45.634;9.420;2023-04-03T02:12:21;8.98;;;5.80;;
53269;SDS011;39159;45.634;9.420;2023-04-03T02:14:46;7.45;;;5.07;;
53269;SDS011;39159;45.634;9.420;2023-04-03T02:17:12;7.20;;;4.88;;
53269;SDS011;39159;45.634;9.420;2023-04-03T02:19:37;9.90;;;5.72;;
53269;SDS011;39159;45.634;9.420;2023-04-03T02:22:03;9.43;;;5.95;;
53269;SDS011;39159;45.634;9.420;2023-04-03T02:24:29;15.60;;;5.60;;
53269;SDS011;39159;45.634;9.420;2023-04-03T02:26:55;8.55;;;5.53;;
53269;SDS011;39159;45.634;9.420;2023-04-03T02:29:20;7.47;;;4.95;;
53269;SDS011;39159;45.634;9.420;2023-04-03T02:31:46;8.50;;;4.95;;
53269;SDS011;39159;45.634;9.420;2023-04-03T02:34:11;7.03;;;4.50;;
53269;SDS011;39159;45.634;9.420;2023-04-03T02:36:37;6.88;;;4.07;;
53269;SDS011;39159;45.634;9.420;2023-04-03T02:39:02;6.28;;;4.15;;
53269;SDS011;39159;45.634;9.420;2023-04-03T02:41:28;6.38;;;4.07;;
53269;SDS011;39159;45.634;9.420;2023-04-03T02:44:00;6.65;;;4.07;;
53269;SDS011;39159;45.634;9.420;2023-04-03T02:46:29;6.97;;;4.00;;
53269;SDS011;39159;45.634;9.420;2023-04-03T02:48:55;4.72;;;3.50;;
53269;SDS011;39159;45.634;9.420;2023-04-03T02:51:20;7.95;;;3.85;;
53269;SDS011;39159;45.634;9.420;2023-04-03T02:53:47;6.20;;;3.72;;
53269;SDS011;39159;45.634;9.420;2023-04-03T02:56:14;4.43;;;3.38;;
53269;SDS011;39159;45.634;9.420;2023-04-03T02:58:39;5.53;;;3.30;;
53269;SDS011;39159;45.634;9.420;2023-04-03T03:01:05;5.65;;;3.22;;
53269;SDS011;39159;45.634;9.420;2023-04-03T03:03:30;5.05;;;3.80;;
53269;SDS011;39159;45.634;9.420;2023-04-03T03:06:09;5.90;;;3.80;;
53269;SDS011;39159;45.634;9.420;2023-04-03T03:08:39;6.13;;;3.30;;
53269;SDS011;39159;45.634;9.420;2023-04-03T03:11:06;6.07;;;3.28;;
53269;SDS011;39159;45.634;9.420;2023-04-03T03:13:32;5.80;;;3.53;;
53269;SDS011;39159;45.634;9.420;2023-04-03T03:15:58;4.22;;;2.90;;
53269;SDS011;39159;45.634;9.420;2023-04-03T03:18:24;4.85;;;3.10;;
53269;SDS011;39159;45.634;9.420;2023-04-03T03:20:51;5.03;;;2.83;;
53269;SDS011;39159;45.634;9.420;2023-04-03T03:23:17;4.68;;;2.78;;
53269;SDS011;39159;45.634;9.420;2023-04-03T03:25:43;3.45;;;2.50;;
53269;SDS011;39159;45.634;9.420;2023-04-03T03:28:08;4.32;;;2.50;;
53269;SDS011;39159;45.634;9.420;2023-04-03T03:30:34;5.03;;;2.28;;
53269;SDS011;39159;45.634;9.420;2023-04-03T03:33:00;6.07;;;2.50;;
53269;SDS011;39159;45.634;9.420;2023-04-03T03:35:26;4.18;;;2.40;;
53269;SDS011;39159;45.634;9.420;2023-04-03T03:37:52;3.53;;;2.38;;
53269;SDS011;39159;45.634;9.420;2023-04-03T03:40:17;4.43;;;2.63;;
53269;SDS011;39159;45.634;9.420;2023-04-03T03:42:43;3.80;;;2.33;;
53269;SDS011;39159;45.634;9.420;2023-04-03T03:45:08;5.93;;;2.97;;
53269;SDS011;39159;45.634;9.420;2023-04-03T03:47:34;5.22;;;2.67;;
53269;SDS011;39159;45.634;9.420;2023-04-03T03:50:00;4.45;;;2.45;;
53269;SDS011;39159;45.634;9.420;2023-04-03T03:52:26;4.05;;;2.72;;
53269;SDS011;39159;45.634;9.420;2023-04-03T03:54:52;3.13;;;2.35;;
53269;SDS011;39159;45.634;9.420;2023-04-03T03:57:17;3.10;;;2.15;;
53269;SDS011;39159;45.634;9.420;2023-04-03T03:59:43;3.05;;;1.90;;
53269;SDS011;39159;45.634;9.420;2023-04-03T04:02:09;2.58;;;1.70;;
53269;SDS011;39159;45.634;9.420;2023-04-03T04:04:36;3.45;;;1.73;;
53269;SDS011;39159;45.634;9.420;2023-04-03T04:07:02;2.33;;;1.48;;
53269;SDS011;39159;45.634;9.420;2023-04-03T04:09:28;2.22;;;1.50;;
53269;SDS011;39159;45.634;9.420;2023-04-03T04:11:54;1.83;;;1.33;;
53269;SDS011;39159;45.634;9.420;2023-04-03T04:14:19;2.67;;;1.30;;
53269;SDS011;39159;45.634;9.420;2023-04-03T04:16:48;1.60;;;1.05;;
53269;SDS011;39159;45.634;9.420;2023-04-03T04:19:13;2.22;;;1.10;;
53269;SDS011;39159;45.634;9.420;2023-04-03T04:21:39;2.20;;;1.15;;
53269;SDS011;39159;45.634;9.420;2023-04-03T04:24:06;3.22;;;1.20;;
53269;SDS011;39159;45.634;9.420;2023-04-03T04:26:33;2.38;;;1.20;;
53269;SDS011;39159;45.634;9.420;2023-04-03T04:28:58;3.40;;;1.00;;
53269;SDS011;39159;45.634;9.420;2023-04-03T04:31:24;2.17;;;0.98;;
53269;SDS011;39159;45.634;9.420;2023-04-03T04:33:50;1.30;;;0.90;;
53269;SDS011;39159;45.634;9.420;2023-04-03T04:36:15;10.70;;;1.45;;
53269;SDS011;39159;45.634;9.420;2023-04-03T04:38:41;2.65;;;1.45;;
53269;SDS011;39159;45.634;9.420;2023-04-03T04:41:07;2.03;;;1.00;;
53269;SDS011;39159;45.634;9.420;2023-04-03T04:43:33;1.60;;;0.98;;
53269;SDS011;39159;45.634;9.420;2023-04-03T04:46:05;2.08;;;1.02;;
53269;SDS011;39159;45.634;9.420;2023-04-03T04:48:33;2.10;;;1.60;;
53269;SDS011;39159;45.634;9.420;2023-04-03T04:50:59;5.55;;;1.10;;
53269;SDS011;39159;45.634;9.420;2023-04-03T04:53:24;2.10;;;1.10;;
53269;SDS011;39159;45.634;9.420;2023-04-03T04:55:50;4.97;;;1.27;;
53269;SDS011;39159;45.634;9.420;2023-04-03T04:58:16;4.43;;;1.38;;
53269;SDS011;39159;45.634;9.420;2023-04-03T05:00:42;9.18;;;1.35;;
53269;SDS011;39159;45.634;9.420;2023-04-03T05:03:07;5.60;;;1.90;;
53269;SDS011;39159;45.634;9.420;2023-04-03T05:05:33;3.83;;;1.45;;
53269;SDS011;39159;45.634;9.420;2023-04-03T05:07:59;2.72;;;1.55;;
53269;SDS011;39159;45.634;9.420;2023-04-03T05:10:24;13.00;;;2.20;;
53269;SDS011;39159;45.634;9.420;2023-04-03T05:12:50;5.38;;;2.05;;
53269;SDS011;39159;45.634;9.420;2023-04-03T05:15:15;3.20;;;1.52;;
53269;SDS011;39159;45.634;9.420;2023-04-03T05:17:41;4.10;;;1.60;;
53269;SDS011;39159;45.634;9.420;2023-04-03T05:20:06;5.43;;;1.60;;
53269;SDS011;39159;45.634;9.420;2023-04-03T05:22:33;4.68;;;2.00;;
53269;SDS011;39159;45.634;9.420;2023-04-03T05:24:59;4.18;;;1.75;;
53269;SDS011;39159;45.634;9.420;2023-04-03T05:27:25;1.55;;;1.27;;
53269;SDS011;39159;45.634;9.420;2023-04-03T05:29:53;6.68;;;1.88;;
53269;SDS011;39159;45.634;9.420;2023-04-03T05:32:18;5.97;;;2.33;;
53269;SDS011;39159;45.634;9.420;2023-04-03T05:34:45;5.35;;;2.03;;
53269;SDS011;39159;45.634;9.420;2023-04-03T05:37:11;5.47;;;1.80;;
53269;SDS011;39159;45.634;9.420;2023-04-03T05:39:36;3.05;;;2.05;;
53269;SDS011;39159;45.634;9.420;2023-04-03T05:42:05;5.22;;;2.35;;
53269;SDS011;39159;45.634;9.420;2023-04-03T05:44:31;4.03;;;2.53;;
53269;SDS011;39159;45.634;9.420;2023-04-03T05:46:56;12.73;;;3.25;;
53269;SDS011;39159;45.634;9.420;2023-04-03T05:49:22;10.40;;;3.10;;
53269;SDS011;39159;45.634;9.420;2023-04-03T05:51:47;4.82;;;2.70;;
53269;SDS011;39159;45.634;9.420;2023-04-03T05:54:16;5.50;;;2.60;;
53269;SDS011;39159;45.634;9.420;2023-04-03T05:56:44;5.07;;;2.83;;
53269;SDS011;39159;45.634;9.420;2023-04-03T05:59:10;3.45;;;2.35;;
53269;SDS011;39159;45.634;9.420;2023-04-03T06:01:36;6.55;;;2.60;;
53269;SDS011;39159;45.634;9.420;2023-04-03T06:04:02;7.68;;;2.83;;
53269;SDS011;39159;45.634;9.420;2023-04-03T06:09:19;4.05;;;2.53;;
53269;SDS011;39159;45.634;9.420;2023-04-03T06:11:47;6.05;;;2.58;;
53269;SDS011;39159;45.634;9.420;2023-04-03T06:14:12;3.58;;;2.28;;
53269;SDS011;39159;45.634;9.420;2023-04-03T06:16:38;4.15;;;1.92;;
53269;SDS011;39159;45.634;9.420;2023-04-03T06:19:04;4.53;;;2.47;;
53269;SDS011;39159;45.634;9.420;2023-04-03T06:21:31;5.00;;;2.67;;
53269;SDS011;39159;45.634;9.420;2023-04-03T06:23:56;5.30;;;2.10;;
53269;SDS011;39159;45.634;9.420;2023-04-03T06:26:22;6.20;;;2.38;;
53269;SDS011;39159;45.634;9.420;2023-04-03T06:28:48;6.72;;;2.20;;
53269;SDS011;39159;45.634;9.420;2023-04-03T06:31:13;5.38;;;2.05;;
53269;SDS011;39159;45.634;9.420;2023-04-03T06:33:39;9.45;;;2.20;;
53269;SDS011;39159;45.634;9.420;2023-04-03T06:36:05;3.67;;;2.10;;
53269;SDS011;39159;45.634;9.420;2023-04-03T06:38:32;5.10;;;2.22;;
53269;SDS011;39159;45.634;9.420;2023-04-03T06:40:58;2.45;;;1.70;;
53269;SDS011;39159;45.634;9.420;2023-04-03T06:43:23;3.70;;;2.05;;
53269;SDS011;39159;45.634;9.420;2023-04-03T06:45:49;2.97;;;1.80;;
53269;SDS011;39159;45.634;9.420;2023-04-03T06:48:15;3.78;;;2.33;;
53269;SDS011;39159;45.634;9.420;2023-04-03T06:50:41;6.03;;;2.10;;
53269;SDS011;39159;45.634;9.420;2023-04-03T06:53:07;6.95;;;2.45;;
53269;SDS011;39159;45.634;9.420;2023-04-03T06:55:33;4.63;;;2.00;;
53269;SDS011;39159;45.634;9.420;2023-04-03T06:57:59;4.95;;;2.53;;
53269;SDS011;39159;45.634;9.420;2023-04-03T07:00:25;4.68;;;2.72;;
53269;SDS011;39159;45.634;9.420;2023-04-03T07:02:51;4.68;;;2.33;;
53269;SDS011;39159;45.634;9.420;2023-04-03T07:05:16;9.80;;;2.45;;
53269;SDS011;39159;45.634;9.420;2023-04-03T07:07:42;6.32;;;2.33;;
53269;SDS011;39159;45.634;9.420;2023-04-03T07:10:08;3.70;;;2.53;;
53269;SDS011;39159;45.634;9.420;2023-04-03T07:12:35;7.60;;;2.58;;
53269;SDS011;39159;45.634;9.420;2023-04-03T07:15:00;5.97;;;2.53;;
53269;SDS011;39159;45.634;9.420;2023-04-03T07:17:26;4.40;;;2.50;;
53269;SDS011;39159;45.634;9.420;2023-04-03T07:19:52;3.90;;;2.50;;
53269;SDS011;39159;45.634;9.420;2023-04-03T07:22:18;5.63;;;2.72;;
53269;SDS011;39159;45.634;9.420;2023-04-03T07:24:43;4.00;;;2.55;;
53269;SDS011;39159;45.634;9.420;2023-04-03T07:27:09;4.97;;;2.47;;
53269;SDS011;39159;45.634;9.420;2023-04-03T07:29:35;6.00;;;2.78;;
53269;SDS011;39159;45.634;9.420;2023-04-03T07:32:01;4.70;;;2.58;;
53269;SDS011;39159;45.634;9.420;2023-04-03T07:34:28;3.63;;;2.50;;
53269;SDS011;39159;45.634;9.420;2023-04-03T07:36:53;6.07;;;3.00;;
53269;SDS011;39159;45.634;9.420;2023-04-03T07:39:19;3.95;;;2.72;;
53269;SDS011;39159;45.634;9.420;2023-04-03T07:41:45;13.50;;;3.13;;
53269;SDS011;39159;45.634;9.420;2023-04-03T07:44:10;3.60;;;2.72;;
53269;SDS011;39159;45.634;9.420;2023-04-03T07:46:36;5.22;;;2.88;;
53269;SDS011;39159;45.634;9.420;2023-04-03T07:49:03;7.25;;;2.92;;
53269;SDS011;39159;45.634;9.420;2023-04-03T07:51:28;3.50;;;2.38;;
53269;SDS011;39159;45.634;9.420;2023-04-03T07:53:54;7.47;;;3.30;;
53269;SDS011;39159;45.634;9.420;2023-04-03T07:56:20;4.40;;;3.20;;
53269;SDS011;39159;45.634;9.420;2023-04-03T07:58:46;5.40;;;3.25;;
53269;SDS011;39159;45.634;9.420;2023-04-03T08:01:11;5.40;;;2.92;;
53269;SDS011;39159;45.634;9.420;2023-04-03T08:03:38;10.13;;;2.92;;
53269;SDS011;39159;45.634;9.420;2023-04-03T08:06:04;2.88;;;2.00;;
53269;SDS011;39159;45.634;9.420;2023-04-03T08:08:31;7.22;;;2.25;;
53269;SDS011;39159;45.634;9.420;2023-04-03T08:10:58;3.42;;;2.00;;
53269;SDS011;39159;45.634;9.420;2023-04-03T08:13:25;3.88;;;2.40;;
53269;SDS011;39159;45.634;9.420;2023-04-03T08:15:51;9.40;;;2.60;;
53269;SDS011;39159;45.634;9.420;2023-04-03T08:18:17;3.47;;;2.20;;
53269;SDS011;39159;45.634;9.420;2023-04-03T08:20:46;4.10;;;2.35;;
53269;SDS011;39159;45.634;9.420;2023-04-03T08:23:11;4.32;;;2.47;;
53269;SDS011;39159;45.634;9.420;2023-04-03T08:25:41;4.28;;;2.38;;
53269;SDS011;39159;45.634;9.420;2023-04-03T08:28:07;6.90;;;2.30;;
53269;SDS011;39159;45.634;9.420;2023-04-03T08:30:33;3.47;;;2.50;;
53269;SDS011;39159;45.634;9.420;2023-04-03T08:33:01;5.72;;;2.90;;
53269;SDS011;39159;45.634;9.420;2023-04-03T08:35:27;5.05;;;2.40;;
53269;SDS011;39159;45.634;9.420;2023-04-03T08:37:53;4.20;;;2.50;;
53269;SDS011;39159;45.634;9.420;2023-04-03T08:40:18;3.67;;;2.53;;
53269;SDS011;39159;45.634;9.420;2023-04-03T08:48:00;5.10;;;3.03;;
53269;SDS011;39159;45.634;9.420;2023-04-03T08:50:38;5.43;;;2.83;;
53269;SDS011;39159;45.634;9.420;2023-04-03T08:53:10;4.30;;;3.08;;
53269;SDS011;39159;45.634;9.420;2023-04-03T08:55:43;3.97;;;2.97;;
53269;SDS011;39159;45.634;9.420;2023-04-03T08:58:17;3.90;;;2.75;;
53269;SDS011;39159;45.634;9.420;2023-04-03T09:00:46;5.25;;;3.28;;
53269;SDS011;39159;45.634;9.420;2023-04-03T09:03:20;4.78;;;2.90;;
53269;SDS011;39159;45.634;9.420;2023-04-03T09:05:51;6.25;;;3.03;;
53269;SDS011;39159;45.634;9.420;2023-04-03T09:15:23;3.78;;;2.40;;
53269;SDS011;39159;45.634;9.420;2023-04-03T09:23:31;4.45;;;2.30;;
53269;SDS011;39159;45.634;9.420;2023-04-03T09:26:05;3.80;;;2.50;;
53269;SDS011;39159;45.634;9.420;2023-04-03T09:28:37;3.75;;;2.40;;
53269;SDS011;39159;45.634;9.420;2023-04-03T09:33:41;2.53;;;2.00;;
53269;SDS011;39159;45.634;9.420;2023-04-03T09:36:07;7.47;;;2.47;;
53269;SDS011;39159;45.634;9.420;2023-04-03T09:38:32;5.30;;;2.55;;
53269;SDS011;39159;45.634;9.420;2023-04-03T09:43:30;4.18;;;2.47;;
53269;SDS011;39159;45.634;9.420;2023-04-03T09:46:24;4.20;;;2.75;;
53269;SDS011;39159;45.634;9.420;2023-04-03T09:49:02;6.75;;;2.65;;
53269;SDS011;39159;45.634;9.420;2023-04-03T09:51:29;5.10;;;2.40;;
53269;SDS011;39159;45.634;9.420;2023-04-03T09:53:56;6.68;;;2.75;;
53269;SDS011;39159;45.634;9.420;2023-04-03T09:56:24;3.25;;;2.40;;
53269;SDS011;39159;45.634;9.420;2023-04-03T10:06:40;4.05;;;2.85;;
53269;SDS011;39159;45.634;9.420;2023-04-03T10:12:06;3.95;;;2.45;;
53269;SDS011;39159;45.634;9.420;2023-04-03T10:14:39;4.85;;;2.92;;
53269;SDS011;39159;45.634;9.420;2023-04-03T10:22:37;3.35;;;2.45;;
53269;SDS011;39159;45.634;9.420;2023-04-03T10:25:13;6.30;;;2.40;;
53269;SDS011;39159;45.634;9.420;2023-04-03T10:27:51;6.40;;;2.28;;
53269;SDS011;39159;45.634;9.420;2023-04-03T10:36:01;3.30;;;2.10;;
53269;SDS011;39159;45.634;9.420;2023-04-03T10:38:33;4.35;;;2.60;;
53269;SDS011;39159;45.634;9.420;2023-04-03T10:46:27;3.30;;;2.65;;
53269;SDS011;39159;45.634;9.420;2023-04-03T10:51:45;2.72;;;2.28;;
53269;SDS011;39159;45.634;9.420;2023-04-03T10:56:48;2.63;;;2.25;;
53269;SDS011;39159;45.634;9.420;2023-04-03T10:59:25;5.10;;;2.40;;
53269;SDS011;39159;45.634;9.420;2023-04-03T11:01:56;6.70;;;3.20;;
53269;SDS011;39159;45.634;9.420;2023-04-03T11:04:27;4.93;;;2.78;;
53269;SDS011;39159;45.634;9.420;2023-04-03T11:07:01;5.35;;;3.00;;
53269;SDS011;39159;45.634;9.420;2023-04-03T11:09:34;9.02;;;2.67;;
53269;SDS011;39159;45.634;9.420;2023-04-03T11:14:40;7.00;;;3.03;;
53269;SDS011;39159;45.634;9.420;2023-04-03T11:22:45;2.80;;;2.35;;
53269;SDS011;39159;45.634;9.420;2023-04-03T11:25:23;3.25;;;2.30;;
53269;SDS011;39159;45.634;9.420;2023-04-03T11:28:01;2.67;;;2.47;;
53269;SDS011;39159;45.634;9.420;2023-04-03T11:30:33;3.25;;;2.55;;
53269;SDS011;39159;45.634;9.420;2023-04-03T11:35:51;7.25;;;2.40;;
53269;SDS011;39159;45.634;9.420;2023-04-03T11:38:24;4.90;;;2.80;;
53269;SDS011;39159;45.634;9.420;2023-04-03T11:40:54;3.63;;;2.55;;
53269;SDS011;39159;45.634;9.420;2023-04-03T11:43:28;5.50;;;2.63;;
53269;SDS011;39159;45.634;9.420;2023-04-03T11:45:56;3.85;;;2.65;;
53269;SDS011;39159;45.634;9.420;2023-04-03T11:56:00;3.17;;;2.50;;
53269;SDS011;39159;45.634;9.420;2023-04-03T11:58:33;5.93;;;2.65;;
53269;SDS011;39159;45.634;9.420;2023-04-03T12:05:51;2.58;;;2.30;;
53269;SDS011;39159;45.634;9.420;2023-04-03T12:21:13;2.13;;;1.90;;
53269;SDS011;39159;45.634;9.420;2023-04-03T12:24:03;6.30;;;2.10;;
53269;SDS011;39159;45.634;9.420;2023-04-03T12:46:20;4.35;;;2.10;;
53269;SDS011;39159;45.634;9.420;2023-04-03T12:48:52;2.78;;;2.05;;
53269;SDS011;39159;45.634;9.420;2023-04-03T12:56:40;4.35;;;2.20;;
53269;SDS011;39159;45.634;9.420;2023-04-03T12:59:22;3.00;;;2.10;;
53269;SDS011;39159;45.634;9.420;2023-04-03T13:01:55;9.68;;;2.90;;
53269;SDS011;39159;45.634;9.420;2023-04-03T13:04:25;3.40;;;2.50;;
53269;SDS011;39159;45.634;9.420;2023-04-03T13:06:53;2.60;;;2.08;;
53269;SDS011;39159;45.634;9.420;2023-04-03T13:11:54;2.55;;;2.35;;
53269;SDS011;39159;45.634;9.420;2023-04-03T13:14:25;3.38;;;2.38;;
53269;SDS011;39159;45.634;9.420;2023-04-03T13:16:54;3.10;;;2.30;;
53269;SDS011;39159;45.634;9.420;2023-04-03T13:19:21;3.33;;;2.63;;
53269;SDS011;39159;45.634;9.420;2023-04-03T13:21:48;3.55;;;2.33;;
53269;SDS011;39159;45.634;9.420;2023-04-03T13:24:18;4.03;;;2.28;;
53269;SDS011;39159;45.634;9.420;2023-04-03T13:26:43;3.17;;;2.65;;
53269;SDS011;39159;45.634;9.420;2023-04-03T13:29:21;3.58;;;2.50;;
53269;SDS011;39159;45.634;9.420;2023-04-03T13:31:52;4.18;;;2.53;;
53269;SDS011;39159;45.634;9.420;2023-04-03T13:34:19;2.97;;;2.50;;
53269;SDS011;39159;45.634;9.420;2023-04-03T13:41:45;6.30;;;2.42;;
53269;SDS011;39159;45.634;9.420;2023-04-03T13:47:36;3.28;;;2.28;;
53269;SDS011;39159;45.634;9.420;2023-04-03T13:50:00;4.05;;;2.63;;
53269;SDS011;39159;45.634;9.420;2023-04-03T13:52:41;4.07;;;2.25;;
53269;SDS011;39159;45.634;9.420;2023-04-03T13:55:17;6.75;;;3.17;;
53269;SDS011;39159;45.634;9.420;2023-04-03T14:00:50;2.25;;;2.05;;
53269;SDS011;39159;45.634;9.420;2023-04-03T14:06:13;3.63;;;2.22;;
53269;SDS011;39159;45.634;9.420;2023-04-03T14:08:41;4.78;;;2.40;;
53269;SDS011;39159;45.634;9.420;2023-04-03T14:11:18;6.80;;;2.40;;
53269;SDS011;39159;45.634;9.420;2023-04-03T14:13:53;5.90;;;2.30;;
53269;SDS011;39159;45.634;9.420;2023-04-03T14:16:23;3.78;;;2.10;;
53269;SDS011;39159;45.634;9.420;2023-04-03T14:18:52;6.90;;;2.28;;
53269;SDS011;39159;45.634;9.420;2023-04-03T14:21:19;2.80;;;2.38;;
53269;SDS011;39159;45.634;9.420;2023-04-03T14:23:46;8.88;;;2.90;;
53269;SDS011;39159;45.634;9.420;2023-04-03T14:26:16;36.03;;;3.20;;
53269;SDS011;39159;45.634;9.420;2023-04-03T14:28:45;4.80;;;2.47;;
53269;SDS011;39159;45.634;9.420;2023-04-03T14:31:12;5.30;;;2.35;;
53269;SDS011;39159;45.634;9.420;2023-04-03T14:33:39;3.80;;;1.95;;
53269;SDS011;39159;45.634;9.420;2023-04-03T14:36:16;4.30;;;2.20;;
53269;SDS011;39159;45.634;9.420;2023-04-03T14:38:45;4.53;;;2.20;;
53269;SDS011;39159;45.634;9.420;2023-04-03T14:41:12;4.95;;;2.50;;
53269;SDS011;39159;45.634;9.420;2023-04-03T14:43:38;3.50;;;2.70;;
53269;SDS011;39159;45.634;9.420;2023-04-03T14:46:04;6.38;;;2.50;;
53269;SDS011;39159;45.634;9.420;2023-04-03T14:48:30;5.75;;;2.35;;
53269;SDS011;39159;45.634;9.420;2023-04-03T14:50:56;4.75;;;2.40;;
53269;SDS011;39159;45.634;9.420;2023-04-03T14:53:22;2.60;;;2.40;;
53269;SDS011;39159;45.634;9.420;2023-04-03T14:55:51;15.90;;;2.92;;
53269;SDS011;39159;45.634;9.420;2023-04-03T14:58:18;9.02;;;3.40;;
53269;SDS011;39159;45.634;9.420;2023-04-03T15:00:45;6.80;;;2.60;;
53269;SDS011;39159;45.634;9.420;2023-04-03T15:03:15;9.88;;;2.67;;
53269;SDS011;39159;45.634;9.420;2023-04-03T15:05:43;3.57;;;2.63;;
53269;SDS011;39159;45.634;9.420;2023-04-03T15:08:20;3.42;;;2.53;;
53269;SDS011;39159;45.634;9.420;2023-04-03T15:10:48;6.40;;;2.55;;
53269;SDS011;39159;45.634;9.420;2023-04-03T15:13:14;4.07;;;2.33;;
53269;SDS011;39159;45.634;9.420;2023-04-03T15:15:40;7.03;;;2.78;;
53269;SDS011;39159;45.634;9.420;2023-04-03T15:18:06;5.47;;;2.80;;
53269;SDS011;39159;45.634;9.420;2023-04-03T15:20:32;5.50;;;2.40;;
53269;SDS011;39159;45.634;9.420;2023-04-03T15:22:58;8.35;;;3.65;;
53269;SDS011;39159;45.634;9.420;2023-04-03T15:25:29;9.82;;;3.13;;
53269;SDS011;39159;45.634;9.420;2023-04-03T15:27:56;4.95;;;2.83;;
53269;SDS011;39159;45.634;9.420;2023-04-03T15:30:22;7.07;;;3.00;;
53269;SDS011;39159;45.634;9.420;2023-04-03T15:32:48;4.78;;;3.05;;
53269;SDS011;39159;45.634;9.420;2023-04-03T15:35:14;8.32;;;3.13;;
53269;SDS011;39159;45.634;9.420;2023-04-03T15:37:40;8.05;;;3.00;;
53269;SDS011;39159;45.634;9.420;2023-04-03T15:40:06;5.00;;;2.80;;
53269;SDS011;39159;45.634;9.420;2023-04-03T15:42:32;4.22;;;3.25;;
53269;SDS011;39159;45.634;9.420;2023-04-03T15:44:58;6.75;;;3.22;;
53269;SDS011;39159;45.634;9.420;2023-04-03T15:47:24;5.10;;;3.03;;
53269;SDS011;39159;45.634;9.420;2023-04-03T15:49:51;9.18;;;2.75;;
53269;SDS011;39159;45.634;9.420;2023-04-03T15:52:18;10.68;;;3.25;;
53269;SDS011;39159;45.634;9.420;2023-04-03T15:54:43;9.05;;;3.10;;
53269;SDS011;39159;45.634;9.420;2023-04-03T15:57:09;14.68;;;3.30;;
53269;SDS011;39159;45.634;9.420;2023-04-03T15:59:34;6.82;;;2.85;;
53269;SDS011;39159;45.634;9.420;2023-04-03T16:02:00;4.45;;;2.92;;
53269;SDS011;39159;45.634;9.420;2023-04-03T16:04:28;6.00;;;3.08;;
53269;SDS011;39159;45.634;9.420;2023-04-03T16:06:55;3.45;;;2.65;;
53269;SDS011;39159;45.634;9.420;2023-04-03T16:09:20;6.82;;;3.05;;
53269;SDS011;39159;45.634;9.420;2023-04-03T16:11:46;5.22;;;2.72;;
53269;SDS011;39159;45.634;9.420;2023-04-03T16:14:11;6.05;;;3.28;;
53269;SDS011;39159;45.634;9.420;2023-04-03T16:16:37;7.47;;;3.15;;
53269;SDS011;39159;45.634;9.420;2023-04-03T16:19:03;7.25;;;3.42;;
53269;SDS011;39159;45.634;9.420;2023-04-03T16:21:29;8.60;;;3.53;;
53269;SDS011;39159;45.634;9.420;2023-04-03T16:23:57;8.55;;;3.60;;
53269;SDS011;39159;45.634;9.420;2023-04-03T16:26:23;6.55;;;3.22;;
53269;SDS011;39159;45.634;9.420;2023-04-03T16:28:48;15.45;;;4.40;;
53269;SDS011;39159;45.634;9.420;2023-04-03T16:31:14;9.88;;;3.45;;
53269;SDS011;39159;45.634;9.420;2023-04-03T16:33:40;5.30;;;3.22;;
53269;SDS011;39159;45.634;9.420;2023-04-03T16:36:05;5.90;;;3.55;;
53269;SDS011;39159;45.634;9.420;2023-04-03T16:38:31;5.90;;;3.00;;
53269;SDS011;39159;45.634;9.420;2023-04-03T16:40:57;7.93;;;3.13;;
53269;SDS011;39159;45.634;9.420;2023-04-03T16:43:24;6.65;;;3.13;;
53269;SDS011;39159;45.634;9.420;2023-04-03T16:45:50;8.52;;;2.90;;
53269;SDS011;39159;45.634;9.420;2023-04-03T16:48:16;4.60;;;3.15;;
53269;SDS011;39159;45.634;9.420;2023-04-03T16:50:42;6.32;;;3.22;;
53269;SDS011;39159;45.634;9.420;2023-04-03T16:53:13;9.25;;;3.08;;
53269;SDS011;39159;45.634;9.420;2023-04-03T16:55:38;5.95;;;2.90;;
53269;SDS011;39159;45.634;9.420;2023-04-03T16:58:05;6.15;;;2.70;;
53269;SDS011;39159;45.634;9.420;2023-04-03T17:00:30;8.77;;;3.45;;
53269;SDS011;39159;45.634;9.420;2023-04-03T17:02:57;6.47;;;2.90;;
53269;SDS011;39159;45.634;9.420;2023-04-03T17:05:22;7.55;;;3.67;;
53269;SDS011;39159;45.634;9.420;2023-04-03T17:07:49;10.40;;;3.40;;
53269;SDS011;39159;45.634;9.420;2023-04-03T17:10:15;6.97;;;3.78;;
53269;SDS011;39159;45.634;9.420;2023-04-03T17:12:41;7.47;;;3.40;;
53269;SDS011;39159;45.634;9.420;2023-04-03T17:15:06;7.70;;;3.08;;
53269;SDS011;39159;45.634;9.420;2023-04-03T17:17:32;5.72;;;3.35;;
53269;SDS011;39159;45.634;9.420;2023-04-03T17:19:58;6.60;;;3.38;;